sensor_id;sensor_type;location;lat;lon;timestamp;P1;durP1;ratioP1;P2;durP2;ratioP2
5133;SDS011;2585;48.696;10.066;2022-07-06T00:00:04;3.00;;;2.00;;
5133;SDS011;2585;48.696;10.066;2022-07-06T00:02:32;2.20;;;2.00;;
5133;SDS011;2585;48.696;10.066;2022-07-06T00:04:59;4.37;;;2.00;;
5133;SDS011;2585;48.696;10.066;2022-07-06T00:07:26;3.77;;;1.83;;
5133;SDS011;2585;48.696;10.066;2022-07-06T00:09:53;2.23;;;1.90;;
5133;SDS011;2585;48.696;10.066;2022-07-06T00:12:19;3.30;;;2.10;;
5133;SDS011;2585;48.696;10.066;2022-07-06T00:14:46;2.77;;;2.13;;
5133;SDS011;2585;48.696;10.066;2022-07-06T00:17:13;4.40;;;2.47;;
5133;SDS011;2585;48.696;10.066;2022-07-06T00:19:40;7.40;;;2.37;;
5133;SDS011;2585;48.696;10.066;2022-07-06T00:22:07;2.20;;;2.00;;
5133;SDS011;2585;48.696;10.066;2022-07-06T00:24:33;2.63;;;2.30;;
5133;SDS011;2585;48.696;10.066;2022-07-06T00:27:00;2.80;;;2.33;;
5133;SDS011;2585;48.696;10.066;2022-07-06T00:29:27;2.33;;;2.13;;
5133;SDS011;2585;48.696;10.066;2022-07-06T00:31:54;3.17;;;2.30;;
5133;SDS011;2585;48.696;10.066;2022-07-06T00:34:21;2.80;;;2.50;;
5133;SDS011;2585;48.696;10.066;2022-07-06T00:36:48;3.50;;;2.33;;
5133;SDS011;2585;48.696;10.066;2022-07-06T00:39:15;3.80;;;3.00;;
5133;SDS011;2585;48.696;10.066;2022-07-06T00:41:43;3.20;;;2.90;;
5133;SDS011;2585;48.696;10.066;2022-07-06T00:44:10;7.57;;;2.20;;
5133;SDS011;2585;48.696;10.066;2022-07-06T00:46:36;3.30;;;2.57;;
5133;SDS011;2585;48.696;10.066;2022-07-06T00:49:03;5.17;;;2.67;;
5133;SDS011;2585;48.696;10.066;2022-07-06T00:51:31;2.73;;;2.30;;
5133;SDS011;2585;48.696;10.066;2022-07-06T00:54:02;2.70;;;2.50;;
5133;SDS011;2585;48.696;10.066;2022-07-06T00:56:31;2.60;;;2.40;;
5133;SDS011;2585;48.696;10.066;2022-07-06T00:59:02;4.93;;;2.70;;
5133;SDS011;2585;48.696;10.066;2022-07-06T01:01:29;2.70;;;2.23;;
5133;SDS011;2585;48.696;10.066;2022-07-06T01:03:56;3.20;;;2.40;;
5133;SDS011;2585;48.696;10.066;2022-07-06T01:06:23;3.93;;;2.47;;
5133;SDS011;2585;48.696;10.066;2022-07-06T01:08:50;3.40;;;3.10;;
5133;SDS011;2585;48.696;10.066;2022-07-06T01:11:18;3.33;;;3.03;;
5133;SDS011;2585;48.696;10.066;2022-07-06T01:13:46;3.77;;;3.47;;
5133;SDS011;2585;48.696;10.066;2022-07-06T01:16:14;3.30;;;2.70;;
5133;SDS011;2585;48.696;10.066;2022-07-06T01:18:41;3.50;;;2.63;;
5133;SDS011;2585;48.696;10.066;2022-07-06T01:21:12;2.63;;;2.43;;
5133;SDS011;2585;48.696;10.066;2022-07-06T01:23:40;4.60;;;3.17;;
5133;SDS011;2585;48.696;10.066;2022-07-06T01:26:12;3.03;;;2.70;;
5133;SDS011;2585;48.696;10.066;2022-07-06T01:28:41;4.70;;;2.47;;
5133;SDS011;2585;48.696;10.066;2022-07-06T01:31:15;7.33;;;2.30;;
5133;SDS011;2585;48.696;10.066;2022-07-06T01:33:48;4.07;;;2.60;;
5133;SDS011;2585;48.696;10.066;2022-07-06T01:36:16;2.53;;;2.33;;
5133;SDS011;2585;48.696;10.066;2022-07-06T01:38:47;4.93;;;2.03;;
5133;SDS011;2585;48.696;10.066;2022-07-06T01:41:15;3.10;;;2.70;;
5133;SDS011;2585;48.696;10.066;2022-07-06T01:43:42;4.17;;;2.80;;
5133;SDS011;2585;48.696;10.066;2022-07-06T01:46:10;3.67;;;2.90;;
5133;SDS011;2585;48.696;10.066;2022-07-06T01:48:37;4.13;;;2.43;;
5133;SDS011;2585;48.696;10.066;2022-07-06T01:51:05;7.13;;;2.63;;
5133;SDS011;2585;48.696;10.066;2022-07-06T01:53:32;2.80;;;2.43;;
5133;SDS011;2585;48.696;10.066;2022-07-06T01:55:59;2.57;;;2.37;;
5133;SDS011;2585;48.696;10.066;2022-07-06T01:58:26;3.90;;;2.80;;
5133;SDS011;2585;48.696;10.066;2022-07-06T02:00:53;2.80;;;2.60;;
5133;SDS011;2585;48.696;10.066;2022-07-06T02:03:20;4.00;;;3.20;;
5133;SDS011;2585;48.696;10.066;2022-07-06T02:05:47;2.70;;;2.43;;
5133;SDS011;2585;48.696;10.066;2022-07-06T02:08:13;4.93;;;2.83;;
5133;SDS011;2585;48.696;10.066;2022-07-06T02:10:40;3.20;;;2.70;;
5133;SDS011;2585;48.696;10.066;2022-07-06T02:13:07;2.90;;;2.60;;
5133;SDS011;2585;48.696;10.066;2022-07-06T02:15:34;10.63;;;3.03;;
5133;SDS011;2585;48.696;10.066;2022-07-06T02:18:01;5.83;;;2.47;;
5133;SDS011;2585;48.696;10.066;2022-07-06T02:20:28;3.90;;;2.80;;
5133;SDS011;2585;48.696;10.066;2022-07-06T02:22:54;2.80;;;2.40;;
5133;SDS011;2585;48.696;10.066;2022-07-06T02:25:21;2.50;;;2.30;;
5133;SDS011;2585;48.696;10.066;2022-07-06T02:27:48;3.10;;;2.80;;
5133;SDS011;2585;48.696;10.066;2022-07-06T02:30:15;5.60;;;2.83;;
5133;SDS011;2585;48.696;10.066;2022-07-06T02:32:42;3.10;;;2.50;;
5133;SDS011;2585;48.696;10.066;2022-07-06T02:35:09;2.83;;;2.40;;
5133;SDS011;2585;48.696;10.066;2022-07-06T02:37:36;5.10;;;2.80;;
5133;SDS011;2585;48.696;10.066;2022-07-06T02:40:03;2.70;;;2.50;;
5133;SDS011;2585;48.696;10.066;2022-07-06T02:42:30;4.63;;;2.80;;
5133;SDS011;2585;48.696;10.066;2022-07-06T02:44:57;3.50;;;3.20;;
5133;SDS011;2585;48.696;10.066;2022-07-06T02:47:24;3.67;;;3.10;;
5133;SDS011;2585;48.696;10.066;2022-07-06T02:49:52;2.80;;;2.50;;
5133;SDS011;2585;48.696;10.066;2022-07-06T02:52:19;2.50;;;2.30;;
5133;SDS011;2585;48.696;10.066;2022-07-06T02:54:46;2.60;;;2.40;;
5133;SDS011;2585;48.696;10.066;2022-07-06T02:57:15;2.50;;;2.30;;
5133;SDS011;2585;48.696;10.066;2022-07-06T02:59:42;3.10;;;2.80;;
5133;SDS011;2585;48.696;10.066;2022-07-06T03:02:10;3.50;;;2.80;;
5133;SDS011;2585;48.696;10.066;2022-07-06T03:04:37;4.27;;;3.13;;
5133;SDS011;2585;48.696;10.066;2022-07-06T03:07:04;3.80;;;3.40;;
5133;SDS011;2585;48.696;10.066;2022-07-06T03:09:30;3.40;;;2.70;;
5133;SDS011;2585;48.696;10.066;2022-07-06T03:11:57;3.13;;;2.83;;
5133;SDS011;2585;48.696;10.066;2022-07-06T03:14:25;3.23;;;2.97;;
5133;SDS011;2585;48.696;10.066;2022-07-06T03:16:52;4.70;;;2.97;;
5133;SDS011;2585;48.696;10.066;2022-07-06T03:19:19;6.13;;;2.80;;
5133;SDS011;2585;48.696;10.066;2022-07-06T03:21:46;4.67;;;2.80;;
5133;SDS011;2585;48.696;10.066;2022-07-06T03:24:13;4.03;;;2.40;;
5133;SDS011;2585;48.696;10.066;2022-07-06T03:26:40;3.23;;;2.93;;
5133;SDS011;2585;48.696;10.066;2022-07-06T03:29:06;3.97;;;3.43;;
5133;SDS011;2585;48.696;10.066;2022-07-06T03:31:33;3.43;;;3.10;;
5133;SDS011;2585;48.696;10.066;2022-07-06T03:34:01;3.20;;;2.90;;
5133;SDS011;2585;48.696;10.066;2022-07-06T03:36:29;3.33;;;3.03;;
5133;SDS011;2585;48.696;10.066;2022-07-06T03:39:03;3.70;;;3.17;;
5133;SDS011;2585;48.696;10.066;2022-07-06T03:41:30;3.80;;;3.50;;
5133;SDS011;2585;48.696;10.066;2022-07-06T03:43:58;5.30;;;3.23;;
5133;SDS011;2585;48.696;10.066;2022-07-06T03:46:25;5.50;;;3.13;;
5133;SDS011;2585;48.696;10.066;2022-07-06T03:48:54;4.00;;;3.07;;
5133;SDS011;2585;48.696;10.066;2022-07-06T03:51:21;7.57;;;3.20;;
5133;SDS011;2585;48.696;10.066;2022-07-06T03:53:48;6.57;;;3.53;;
5133;SDS011;2585;48.696;10.066;2022-07-06T03:56:15;4.47;;;2.67;;
5133;SDS011;2585;48.696;10.066;2022-07-06T03:58:57;2.97;;;2.70;;
5133;SDS011;2585;48.696;10.066;2022-07-06T04:01:28;4.20;;;3.67;;
5133;SDS011;2585;48.696;10.066;2022-07-06T04:03:56;3.53;;;3.23;;
5133;SDS011;2585;48.696;10.066;2022-07-06T04:06:23;4.13;;;3.50;;
5133;SDS011;2585;48.696;10.066;2022-07-06T04:08:50;4.07;;;3.67;;
5133;SDS011;2585;48.696;10.066;2022-07-06T04:11:17;7.03;;;3.20;;
5133;SDS011;2585;48.696;10.066;2022-07-06T04:13:44;4.70;;;2.97;;
5133;SDS011;2585;48.696;10.066;2022-07-06T04:16:11;2.83;;;2.63;;
5133;SDS011;2585;48.696;10.066;2022-07-06T04:18:38;3.23;;;2.93;;
5133;SDS011;2585;48.696;10.066;2022-07-06T04:21:04;3.77;;;3.37;;
5133;SDS011;2585;48.696;10.066;2022-07-06T04:23:31;6.03;;;3.37;;
5133;SDS011;2585;48.696;10.066;2022-07-06T04:25:58;3.50;;;3.20;;
5133;SDS011;2585;48.696;10.066;2022-07-06T04:28:25;3.87;;;3.43;;
5133;SDS011;2585;48.696;10.066;2022-07-06T04:30:52;3.70;;;3.40;;
5133;SDS011;2585;48.696;10.066;2022-07-06T04:33:19;5.03;;;3.27;;
5133;SDS011;2585;48.696;10.066;2022-07-06T04:35:46;3.63;;;3.33;;
5133;SDS011;2585;48.696;10.066;2022-07-06T04:38:13;12.03;;;3.50;;
5133;SDS011;2585;48.696;10.066;2022-07-06T04:40:39;4.13;;;3.53;;
5133;SDS011;2585;48.696;10.066;2022-07-06T04:43:06;6.43;;;4.17;;
5133;SDS011;2585;48.696;10.066;2022-07-06T04:45:33;8.30;;;3.70;;
5133;SDS011;2585;48.696;10.066;2022-07-06T04:48:00;4.27;;;3.50;;
5133;SDS011;2585;48.696;10.066;2022-07-06T04:50:27;3.97;;;3.60;;
5133;SDS011;2585;48.696;10.066;2022-07-06T04:52:54;4.70;;;3.90;;
5133;SDS011;2585;48.696;10.066;2022-07-06T04:55:20;4.00;;;3.60;;
5133;SDS011;2585;48.696;10.066;2022-07-06T04:57:47;3.30;;;3.00;;
5133;SDS011;2585;48.696;10.066;2022-07-06T05:00:14;5.03;;;4.07;;
5133;SDS011;2585;48.696;10.066;2022-07-06T05:02:41;5.47;;;3.83;;
5133;SDS011;2585;48.696;10.066;2022-07-06T05:05:08;5.07;;;3.80;;
5133;SDS011;2585;48.696;10.066;2022-07-06T05:07:35;8.30;;;4.20;;
5133;SDS011;2585;48.696;10.066;2022-07-06T05:10:06;5.00;;;3.33;;
5133;SDS011;2585;48.696;10.066;2022-07-06T05:12:34;4.83;;;4.10;;
5133;SDS011;2585;48.696;10.066;2022-07-06T05:15:02;4.57;;;3.90;;
5133;SDS011;2585;48.696;10.066;2022-07-06T05:17:29;5.60;;;3.70;;
5133;SDS011;2585;48.696;10.066;2022-07-06T05:19:56;3.87;;;3.47;;
5133;SDS011;2585;48.696;10.066;2022-07-06T05:22:23;5.17;;;4.67;;
5133;SDS011;2585;48.696;10.066;2022-07-06T05:24:50;3.80;;;3.50;;
5133;SDS011;2585;48.696;10.066;2022-07-06T05:27:17;3.83;;;3.53;;
5133;SDS011;2585;48.696;10.066;2022-07-06T05:29:44;7.83;;;3.90;;
5133;SDS011;2585;48.696;10.066;2022-07-06T05:32:11;6.03;;;3.70;;
5133;SDS011;2585;48.696;10.066;2022-07-06T05:34:38;5.93;;;3.80;;
5133;SDS011;2585;48.696;10.066;2022-07-06T05:37:06;4.10;;;3.60;;
5133;SDS011;2585;48.696;10.066;2022-07-06T05:39:32;3.67;;;3.37;;
5133;SDS011;2585;48.696;10.066;2022-07-06T05:42:00;5.53;;;3.83;;
5133;SDS011;2585;48.696;10.066;2022-07-06T05:44:26;7.23;;;4.07;;
5133;SDS011;2585;48.696;10.066;2022-07-06T05:46:53;10.33;;;4.27;;
5133;SDS011;2585;48.696;10.066;2022-07-06T05:49:40;6.67;;;5.00;;
5133;SDS011;2585;48.696;10.066;2022-07-06T05:52:25;4.60;;;4.00;;
5133;SDS011;2585;48.696;10.066;2022-07-06T05:54:52;4.27;;;3.87;;
5133;SDS011;2585;48.696;10.066;2022-07-06T05:57:19;14.87;;;5.33;;
5133;SDS011;2585;48.696;10.066;2022-07-06T05:59:46;9.17;;;5.10;;
5133;SDS011;2585;48.696;10.066;2022-07-06T06:02:13;11.60;;;4.77;;
5133;SDS011;2585;48.696;10.066;2022-07-06T06:04:40;3.63;;;2.90;;
5133;SDS011;2585;48.696;10.066;2022-07-06T06:07:07;4.80;;;2.80;;
5133;SDS011;2585;48.696;10.066;2022-07-06T06:09:33;7.80;;;2.97;;
5133;SDS011;2585;48.696;10.066;2022-07-06T06:12:00;4.23;;;3.10;;
5133;SDS011;2585;48.696;10.066;2022-07-06T06:14:27;3.63;;;2.70;;
5133;SDS011;2585;48.696;10.066;2022-07-06T06:16:54;3.33;;;2.47;;
5133;SDS011;2585;48.696;10.066;2022-07-06T06:19:21;3.00;;;2.30;;
5133;SDS011;2585;48.696;10.066;2022-07-06T06:21:48;3.23;;;2.30;;
5133;SDS011;2585;48.696;10.066;2022-07-06T06:24:14;11.13;;;2.87;;
5133;SDS011;2585;48.696;10.066;2022-07-06T06:26:41;2.90;;;2.33;;
5133;SDS011;2585;48.696;10.066;2022-07-06T06:29:08;3.77;;;2.10;;
5133;SDS011;2585;48.696;10.066;2022-07-06T06:31:35;4.40;;;2.97;;
5133;SDS011;2585;48.696;10.066;2022-07-06T06:34:07;2.97;;;2.60;;
5133;SDS011;2585;48.696;10.066;2022-07-06T06:36:34;3.67;;;2.27;;
5133;SDS011;2585;48.696;10.066;2022-07-06T06:39:00;4.00;;;2.07;;
5133;SDS011;2585;48.696;10.066;2022-07-06T06:41:28;4.80;;;2.47;;
5133;SDS011;2585;48.696;10.066;2022-07-06T06:43:55;2.53;;;1.90;;
5133;SDS011;2585;48.696;10.066;2022-07-06T06:46:22;3.10;;;2.40;;
5133;SDS011;2585;48.696;10.066;2022-07-06T06:48:49;2.80;;;2.00;;
5133;SDS011;2585;48.696;10.066;2022-07-06T06:51:15;5.00;;;2.47;;
5133;SDS011;2585;48.696;10.066;2022-07-06T06:53:42;2.43;;;2.10;;
5133;SDS011;2585;48.696;10.066;2022-07-06T06:56:09;7.37;;;2.60;;
5133;SDS011;2585;48.696;10.066;2022-07-06T06:58:36;5.70;;;2.37;;
5133;SDS011;2585;48.696;10.066;2022-07-06T07:01:23;5.70;;;2.10;;
5133;SDS011;2585;48.696;10.066;2022-07-06T07:03:50;3.10;;;2.30;;
5133;SDS011;2585;48.696;10.066;2022-07-06T07:06:18;4.80;;;1.90;;
5133;SDS011;2585;48.696;10.066;2022-07-06T07:08:45;2.67;;;2.07;;
5133;SDS011;2585;48.696;10.066;2022-07-06T07:11:11;1.97;;;1.80;;
5133;SDS011;2585;48.696;10.066;2022-07-06T07:13:38;5.73;;;2.33;;
5133;SDS011;2585;48.696;10.066;2022-07-06T07:16:05;2.23;;;1.80;;
5133;SDS011;2585;48.696;10.066;2022-07-06T07:18:32;3.97;;;2.30;;
5133;SDS011;2585;48.696;10.066;2022-07-06T07:20:59;3.83;;;1.93;;
5133;SDS011;2585;48.696;10.066;2022-07-06T07:23:26;2.20;;;2.00;;
5133;SDS011;2585;48.696;10.066;2022-07-06T07:25:53;3.90;;;2.27;;
5133;SDS011;2585;48.696;10.066;2022-07-06T07:28:20;6.00;;;1.97;;
5133;SDS011;2585;48.696;10.066;2022-07-06T07:30:47;2.53;;;2.00;;
5133;SDS011;2585;48.696;10.066;2022-07-06T07:33:14;3.53;;;1.87;;
5133;SDS011;2585;48.696;10.066;2022-07-06T07:35:41;3.40;;;2.10;;
5133;SDS011;2585;48.696;10.066;2022-07-06T07:38:08;2.20;;;1.97;;
5133;SDS011;2585;48.696;10.066;2022-07-06T07:40:34;3.27;;;1.90;;
5133;SDS011;2585;48.696;10.066;2022-07-06T07:43:01;5.57;;;2.13;;
5133;SDS011;2585;48.696;10.066;2022-07-06T07:45:28;2.60;;;1.87;;
5133;SDS011;2585;48.696;10.066;2022-07-06T07:47:55;2.63;;;1.93;;
5133;SDS011;2585;48.696;10.066;2022-07-06T07:50:22;4.37;;;1.90;;
5133;SDS011;2585;48.696;10.066;2022-07-06T07:52:49;2.90;;;2.00;;
5133;SDS011;2585;48.696;10.066;2022-07-06T07:55:16;2.07;;;1.87;;
5133;SDS011;2585;48.696;10.066;2022-07-06T07:58:03;2.80;;;2.23;;
5133;SDS011;2585;48.696;10.066;2022-07-06T08:00:30;5.50;;;2.30;;
5133;SDS011;2585;48.696;10.066;2022-07-06T08:02:57;3.33;;;1.93;;
5133;SDS011;2585;48.696;10.066;2022-07-06T08:05:24;3.00;;;2.03;;
5133;SDS011;2585;48.696;10.066;2022-07-06T08:07:51;2.93;;;1.70;;
5133;SDS011;2585;48.696;10.066;2022-07-06T08:10:18;1.80;;;1.70;;
5133;SDS011;2585;48.696;10.066;2022-07-06T08:12:45;1.60;;;1.50;;
5133;SDS011;2585;48.696;10.066;2022-07-06T08:15:12;2.17;;;1.97;;
5133;SDS011;2585;48.696;10.066;2022-07-06T08:17:39;3.27;;;1.77;;
5133;SDS011;2585;48.696;10.066;2022-07-06T08:20:06;4.37;;;1.90;;
5133;SDS011;2585;48.696;10.066;2022-07-06T08:22:36;2.07;;;1.90;;
5133;SDS011;2585;48.696;10.066;2022-07-06T08:25:04;3.37;;;1.87;;
5133;SDS011;2585;48.696;10.066;2022-07-06T08:27:32;3.83;;;2.30;;
5133;SDS011;2585;48.696;10.066;2022-07-06T08:29:59;2.10;;;1.63;;
5133;SDS011;2585;48.696;10.066;2022-07-06T08:32:26;4.40;;;1.97;;
5133;SDS011;2585;48.696;10.066;2022-07-06T08:35:13;3.60;;;1.87;;
5133;SDS011;2585;48.696;10.066;2022-07-06T08:37:40;1.97;;;1.77;;
5133;SDS011;2585;48.696;10.066;2022-07-06T08:40:07;3.40;;;1.73;;
5133;SDS011;2585;48.696;10.066;2022-07-06T08:42:35;3.07;;;2.10;;
5133;SDS011;2585;48.696;10.066;2022-07-06T08:45:03;1.97;;;1.70;;
5133;SDS011;2585;48.696;10.066;2022-07-06T08:47:35;1.77;;;1.67;;
5133;SDS011;2585;48.696;10.066;2022-07-06T08:50:04;3.60;;;1.80;;
5133;SDS011;2585;48.696;10.066;2022-07-06T08:52:31;2.17;;;1.70;;
5133;SDS011;2585;48.696;10.066;2022-07-06T08:54:59;3.80;;;1.83;;
5133;SDS011;2585;48.696;10.066;2022-07-06T08:57:27;3.83;;;2.10;;
5133;SDS011;2585;48.696;10.066;2022-07-06T08:59:54;5.00;;;2.13;;
5133;SDS011;2585;48.696;10.066;2022-07-06T09:02:25;2.83;;;2.10;;
5133;SDS011;2585;48.696;10.066;2022-07-06T09:04:55;2.43;;;1.70;;
5133;SDS011;2585;48.696;10.066;2022-07-06T09:07:28;2.27;;;1.90;;
5133;SDS011;2585;48.696;10.066;2022-07-06T09:10:20;3.90;;;1.90;;
5133;SDS011;2585;48.696;10.066;2022-07-06T09:12:48;2.03;;;1.53;;
5133;SDS011;2585;48.696;10.066;2022-07-06T09:15:15;4.07;;;2.00;;
5133;SDS011;2585;48.696;10.066;2022-07-06T09:17:42;1.60;;;1.50;;
5133;SDS011;2585;48.696;10.066;2022-07-06T09:20:11;9.00;;;2.43;;
5133;SDS011;2585;48.696;10.066;2022-07-06T09:22:39;2.27;;;1.90;;
5133;SDS011;2585;48.696;10.066;2022-07-06T09:25:11;3.77;;;1.70;;
5133;SDS011;2585;48.696;10.066;2022-07-06T09:27:43;2.83;;;2.10;;
5133;SDS011;2585;48.696;10.066;2022-07-06T09:30:16;2.30;;;1.53;;
5133;SDS011;2585;48.696;10.066;2022-07-06T09:32:44;2.40;;;1.63;;
5133;SDS011;2585;48.696;10.066;2022-07-06T09:35:26;1.70;;;1.60;;
5133;SDS011;2585;48.696;10.066;2022-07-06T09:38:09;1.90;;;1.77;;
5133;SDS011;2585;48.696;10.066;2022-07-06T09:40:38;3.47;;;1.70;;
5133;SDS011;2585;48.696;10.066;2022-07-06T09:45:53;2.37;;;1.90;;
5133;SDS011;2585;48.696;10.066;2022-07-06T09:48:23;1.97;;;1.77;;
5133;SDS011;2585;48.696;10.066;2022-07-06T09:50:59;4.37;;;1.70;;
5133;SDS011;2585;48.696;10.066;2022-07-06T09:53:29;1.90;;;1.80;;
5133;SDS011;2585;48.696;10.066;2022-07-06T09:55:56;3.33;;;2.10;;
5133;SDS011;2585;48.696;10.066;2022-07-06T09:58:26;3.33;;;1.60;;
5133;SDS011;2585;48.696;10.066;2022-07-06T10:01:24;4.20;;;1.70;;
5133;SDS011;2585;48.696;10.066;2022-07-06T10:03:53;3.70;;;1.70;;
5133;SDS011;2585;48.696;10.066;2022-07-06T10:06:20;3.93;;;2.00;;
5133;SDS011;2585;48.696;10.066;2022-07-06T10:08:47;2.40;;;2.20;;
5133;SDS011;2585;48.696;10.066;2022-07-06T10:11:14;3.83;;;1.80;;
5133;SDS011;2585;48.696;10.066;2022-07-06T10:13:41;2.03;;;1.70;;
5133;SDS011;2585;48.696;10.066;2022-07-06T10:16:10;2.00;;;1.80;;
5133;SDS011;2585;48.696;10.066;2022-07-06T10:18:37;7.33;;;2.37;;
5133;SDS011;2585;48.696;10.066;2022-07-06T10:21:04;1.83;;;1.73;;
5133;SDS011;2585;48.696;10.066;2022-07-06T10:23:31;1.70;;;1.30;;
5133;SDS011;2585;48.696;10.066;2022-07-06T10:26:00;2.07;;;1.90;;
5133;SDS011;2585;48.696;10.066;2022-07-06T10:28:28;4.73;;;2.23;;
5133;SDS011;2585;48.696;10.066;2022-07-06T10:30:56;3.73;;;1.90;;
5133;SDS011;2585;48.696;10.066;2022-07-06T10:33:23;4.50;;;2.00;;
5133;SDS011;2585;48.696;10.066;2022-07-06T10:35:54;4.93;;;1.70;;
5133;SDS011;2585;48.696;10.066;2022-07-06T10:38:29;1.77;;;1.60;;
5133;SDS011;2585;48.696;10.066;2022-07-06T10:41:04;6.83;;;1.60;;
5133;SDS011;2585;48.696;10.066;2022-07-06T10:43:34;3.10;;;2.03;;
5133;SDS011;2585;48.696;10.066;2022-07-06T10:46:08;4.50;;;2.10;;
5133;SDS011;2585;48.696;10.066;2022-07-06T10:48:48;2.70;;;2.07;;
5133;SDS011;2585;48.696;10.066;2022-07-06T10:51:25;6.20;;;1.87;;
5133;SDS011;2585;48.696;10.066;2022-07-06T10:53:57;1.80;;;1.70;;
5133;SDS011;2585;48.696;10.066;2022-07-06T10:56:32;2.30;;;1.53;;
5133;SDS011;2585;48.696;10.066;2022-07-06T10:59:23;3.00;;;1.70;;
5133;SDS011;2585;48.696;10.066;2022-07-06T11:02:17;3.50;;;1.90;;
5133;SDS011;2585;48.696;10.066;2022-07-06T11:04:44;4.40;;;2.10;;
5133;SDS011;2585;48.696;10.066;2022-07-06T11:07:14;2.90;;;2.23;;
5133;SDS011;2585;48.696;10.066;2022-07-06T11:09:54;3.20;;;2.10;;
5133;SDS011;2585;48.696;10.066;2022-07-06T11:12:22;2.90;;;1.93;;
5133;SDS011;2585;48.696;10.066;2022-07-06T11:14:49;1.60;;;1.50;;
5133;SDS011;2585;48.696;10.066;2022-07-06T11:17:17;3.30;;;1.93;;
5133;SDS011;2585;48.696;10.066;2022-07-06T11:19:49;1.93;;;1.70;;
5133;SDS011;2585;48.696;10.066;2022-07-06T11:22:17;4.07;;;2.13;;
5133;SDS011;2585;48.696;10.066;2022-07-06T11:24:45;2.60;;;2.10;;
5133;SDS011;2585;48.696;10.066;2022-07-06T11:27:12;3.03;;;2.30;;
5133;SDS011;2585;48.696;10.066;2022-07-06T11:29:39;2.30;;;1.80;;
5133;SDS011;2585;48.696;10.066;2022-07-06T11:32:07;4.13;;;2.43;;
5133;SDS011;2585;48.696;10.066;2022-07-06T11:34:39;3.53;;;2.50;;
5133;SDS011;2585;48.696;10.066;2022-07-06T11:37:09;2.40;;;2.20;;
5133;SDS011;2585;48.696;10.066;2022-07-06T11:39:38;2.33;;;2.10;;
5133;SDS011;2585;48.696;10.066;2022-07-06T11:42:07;1.80;;;1.70;;
5133;SDS011;2585;48.696;10.066;2022-07-06T11:44:35;3.47;;;2.07;;
5133;SDS011;2585;48.696;10.066;2022-07-06T11:47:03;2.87;;;1.50;;
5133;SDS011;2585;48.696;10.066;2022-07-06T11:49:31;5.90;;;1.50;;
5133;SDS011;2585;48.696;10.066;2022-07-06T11:51:58;2.97;;;2.00;;
5133;SDS011;2585;48.696;10.066;2022-07-06T11:54:25;2.50;;;2.00;;
5133;SDS011;2585;48.696;10.066;2022-07-06T11:56:53;2.63;;;1.80;;
5133;SDS011;2585;48.696;10.066;2022-07-06T11:59:30;5.30;;;2.30;;
5133;SDS011;2585;48.696;10.066;2022-07-06T12:02:05;2.33;;;2.10;;
5133;SDS011;2585;48.696;10.066;2022-07-06T12:04:44;8.60;;;2.87;;
5133;SDS011;2585;48.696;10.066;2022-07-06T12:07:13;3.00;;;2.03;;
5133;SDS011;2585;48.696;10.066;2022-07-06T12:09:42;2.50;;;2.30;;
5133;SDS011;2585;48.696;10.066;2022-07-06T12:12:10;4.80;;;1.90;;
5133;SDS011;2585;48.696;10.066;2022-07-06T12:14:39;2.10;;;1.90;;
5133;SDS011;2585;48.696;10.066;2022-07-06T12:17:07;2.70;;;2.00;;
5133;SDS011;2585;48.696;10.066;2022-07-06T12:19:36;2.90;;;2.00;;
5133;SDS011;2585;48.696;10.066;2022-07-06T12:22:04;2.80;;;1.67;;
5133;SDS011;2585;48.696;10.066;2022-07-06T12:24:32;4.93;;;1.87;;
5133;SDS011;2585;48.696;10.066;2022-07-06T12:27:16;4.30;;;2.23;;
5133;SDS011;2585;48.696;10.066;2022-07-06T12:29:45;5.10;;;1.90;;
5133;SDS011;2585;48.696;10.066;2022-07-06T12:32:17;3.33;;;1.97;;
5133;SDS011;2585;48.696;10.066;2022-07-06T12:35:06;3.33;;;1.60;;
5133;SDS011;2585;48.696;10.066;2022-07-06T12:37:34;2.57;;;1.80;;
5133;SDS011;2585;48.696;10.066;2022-07-06T12:40:01;4.30;;;1.90;;
5133;SDS011;2585;48.696;10.066;2022-07-06T12:42:45;2.10;;;1.60;;
5133;SDS011;2585;48.696;10.066;2022-07-06T12:45:13;2.70;;;1.50;;
5133;SDS011;2585;48.696;10.066;2022-07-06T12:47:40;2.70;;;1.47;;
5133;SDS011;2585;48.696;10.066;2022-07-06T12:50:09;3.10;;;1.90;;
5133;SDS011;2585;48.696;10.066;2022-07-06T12:52:38;5.70;;;1.80;;
5133;SDS011;2585;48.696;10.066;2022-07-06T12:55:06;2.80;;;1.70;;
5133;SDS011;2585;48.696;10.066;2022-07-06T12:57:46;2.33;;;1.50;;
5133;SDS011;2585;48.696;10.066;2022-07-06T13:00:14;2.07;;;1.80;;
5133;SDS011;2585;48.696;10.066;2022-07-06T13:02:43;2.23;;;1.80;;
5133;SDS011;2585;48.696;10.066;2022-07-06T13:05:32;2.83;;;1.77;;
5133;SDS011;2585;48.696;10.066;2022-07-06T13:07:59;3.23;;;1.60;;
5133;SDS011;2585;48.696;10.066;2022-07-06T13:10:28;2.13;;;1.43;;
5133;SDS011;2585;48.696;10.066;2022-07-06T13:12:57;1.87;;;1.73;;
5133;SDS011;2585;48.696;10.066;2022-07-06T13:15:24;5.97;;;1.60;;
5133;SDS011;2585;48.696;10.066;2022-07-06T13:17:51;2.53;;;1.50;;
5133;SDS011;2585;48.696;10.066;2022-07-06T13:20:18;1.83;;;1.50;;
5133;SDS011;2585;48.696;10.066;2022-07-06T13:22:45;1.80;;;1.70;;
5133;SDS011;2585;48.696;10.066;2022-07-06T13:25:12;1.80;;;1.60;;
5133;SDS011;2585;48.696;10.066;2022-07-06T13:27:39;2.83;;;1.73;;
5133;SDS011;2585;48.696;10.066;2022-07-06T13:30:06;3.40;;;1.80;;
5133;SDS011;2585;48.696;10.066;2022-07-06T13:32:34;2.83;;;1.70;;
5133;SDS011;2585;48.696;10.066;2022-07-06T13:35:01;3.63;;;1.43;;
5133;SDS011;2585;48.696;10.066;2022-07-06T13:37:28;3.07;;;1.50;;
5133;SDS011;2585;48.696;10.066;2022-07-06T13:39:55;3.53;;;1.73;;
5133;SDS011;2585;48.696;10.066;2022-07-06T13:42:22;2.50;;;1.77;;
5133;SDS011;2585;48.696;10.066;2022-07-06T13:44:49;4.90;;;1.50;;
5133;SDS011;2585;48.696;10.066;2022-07-06T13:47:16;3.13;;;1.60;;
5133;SDS011;2585;48.696;10.066;2022-07-06T13:49:43;3.00;;;1.73;;
5133;SDS011;2585;48.696;10.066;2022-07-06T13:52:14;3.30;;;1.97;;
5133;SDS011;2585;48.696;10.066;2022-07-06T13:54:40;3.33;;;1.70;;
5133;SDS011;2585;48.696;10.066;2022-07-06T13:57:07;4.63;;;1.40;;
5133;SDS011;2585;48.696;10.066;2022-07-06T13:59:34;3.37;;;2.00;;
5133;SDS011;2585;48.696;10.066;2022-07-06T14:02:01;1.53;;;1.43;;
5133;SDS011;2585;48.696;10.066;2022-07-06T14:04:29;3.67;;;1.93;;
5133;SDS011;2585;48.696;10.066;2022-07-06T14:06:55;9.17;;;1.87;;
5133;SDS011;2585;48.696;10.066;2022-07-06T14:09:22;2.20;;;1.93;;
5133;SDS011;2585;48.696;10.066;2022-07-06T14:11:49;2.43;;;1.60;;
5133;SDS011;2585;48.696;10.066;2022-07-06T14:14:16;2.00;;;1.83;;
5133;SDS011;2585;48.696;10.066;2022-07-06T14:16:43;3.20;;;2.00;;
5133;SDS011;2585;48.696;10.066;2022-07-06T14:19:09;5.20;;;2.10;;
5133;SDS011;2585;48.696;10.066;2022-07-06T14:21:43;4.50;;;2.10;;
5133;SDS011;2585;48.696;10.066;2022-07-06T14:24:12;2.60;;;1.80;;
5133;SDS011;2585;48.696;10.066;2022-07-06T14:26:39;3.20;;;2.10;;
5133;SDS011;2585;48.696;10.066;2022-07-06T14:29:06;3.60;;;2.00;;
5133;SDS011;2585;48.696;10.066;2022-07-06T14:31:33;6.13;;;2.60;;
5133;SDS011;2585;48.696;10.066;2022-07-06T14:33:59;2.93;;;1.87;;
5133;SDS011;2585;48.696;10.066;2022-07-06T14:36:26;2.20;;;2.00;;
5133;SDS011;2585;48.696;10.066;2022-07-06T14:38:53;5.60;;;2.17;;
5133;SDS011;2585;48.696;10.066;2022-07-06T14:41:20;3.23;;;2.17;;
5133;SDS011;2585;48.696;10.066;2022-07-06T14:43:48;2.50;;;1.87;;
5133;SDS011;2585;48.696;10.066;2022-07-06T14:46:15;4.40;;;2.20;;
5133;SDS011;2585;48.696;10.066;2022-07-06T14:48:42;4.00;;;2.10;;
5133;SDS011;2585;48.696;10.066;2022-07-06T14:51:09;3.93;;;1.90;;
5133;SDS011;2585;48.696;10.066;2022-07-06T14:53:36;2.73;;;2.27;;
5133;SDS011;2585;48.696;10.066;2022-07-06T14:56:03;3.57;;;2.20;;
5133;SDS011;2585;48.696;10.066;2022-07-06T14:58:30;6.27;;;2.27;;
5133;SDS011;2585;48.696;10.066;2022-07-06T15:00:57;6.30;;;2.13;;
5133;SDS011;2585;48.696;10.066;2022-07-06T15:03:25;4.77;;;2.07;;
5133;SDS011;2585;48.696;10.066;2022-07-06T15:05:53;4.70;;;2.20;;
5133;SDS011;2585;48.696;10.066;2022-07-06T15:08:20;5.40;;;2.23;;
5133;SDS011;2585;48.696;10.066;2022-07-06T15:10:47;3.93;;;2.10;;